createdAt,value
2023-01-19T00:00:02.347Z,71.33
2023-01-19T00:02:28.767Z,72.14
2023-01-19T00:04:55.397Z,71.15
2023-01-19T00:07:21.795Z,70.68
2023-01-19T00:09:48.215Z,70.60
2023-01-19T00:12:14.610Z,70.82
2023-01-19T00:14:41.060Z,71.24
2023-01-19T00:17:07.525Z,72.67
2023-01-19T00:19:33.964Z,72.02
2023-01-19T00:22:00.390Z,72.83
2023-01-19T00:24:26.821Z,73.63
2023-01-19T00:26:53.237Z,73.21
2023-01-19T00:29:20.377Z,72.44
2023-01-19T00:31:47.064Z,71.93
2023-01-19T00:34:13.559Z,72.15
2023-01-19T00:36:39.960Z,71.58
2023-01-19T00:39:06.427Z,70.77
2023-01-19T00:41:51.512Z,70.05
2023-01-19T00:44:17.942Z,70.02
2023-01-19T00:46:44.507Z,69.85
2023-01-19T00:49:11.225Z,69.48
2023-01-19T00:51:38.104Z,69.58
2023-01-19T00:54:04.971Z,69.63
2023-01-19T00:56:32.223Z,69.59
2023-01-19T00:58:58.728Z,70.62
2023-01-19T01:01:45.183Z,71.82
2023-01-19T01:04:13.532Z,72.00
2023-01-19T01:06:40.122Z,71.38
2023-01-19T01:09:11.831Z,70.14
2023-01-19T01:11:42.539Z,69.26
2023-01-19T01:14:11.198Z,69.23
2023-01-19T01:16:38.272Z,71.15
2023-01-19T01:19:04.875Z,72.45
2023-01-19T01:21:31.532Z,73.46
2023-01-19T01:23:57.994Z,73.66
2023-01-19T01:26:26.390Z,73.44
2023-01-19T01:28:53.492Z,73.94
2023-01-19T01:31:20.125Z,74.40
2023-01-19T01:33:46.559Z,74.72
2023-01-19T01:36:13.011Z,74.48
2023-01-19T01:38:41.082Z,73.81
2023-01-19T01:41:08.658Z,73.19
2023-01-19T01:43:58.503Z,73.04
2023-01-19T01:46:27.034Z,73.12
2023-01-19T01:49:05.575Z,72.43
2023-01-19T01:51:50.789Z,72.80
2023-01-19T01:54:28.801Z,73.10
2023-01-19T01:57:00.646Z,73.55
2023-01-19T01:59:34.781Z,73.46
2023-01-19T02:02:32.822Z,73.60
2023-01-19T02:05:04.923Z,73.03
2023-01-19T02:08:07.901Z,72.29
2023-01-19T02:10:53.676Z,72.34
2023-01-19T02:13:21.105Z,72.08
2023-01-19T02:15:52.620Z,72.04
2023-01-19T02:18:21.473Z,72.68
2023-01-19T02:20:55.688Z,72.51
2023-01-19T02:23:43.250Z,72.64
2023-01-19T02:26:13.081Z,73.62
2023-01-19T02:28:43.468Z,74.53
2023-01-19T02:31:10.610Z,74.00
2023-01-19T02:33:37.353Z,74.23
2023-01-19T02:36:05.942Z,74.34
2023-01-19T02:38:32.918Z,74.65
2023-01-19T02:41:03.043Z,74.80
2023-01-19T02:43:30.726Z,74.32
2023-01-19T02:45:57.465Z,73.85
2023-01-19T02:48:24.107Z,74.10
2023-01-19T02:50:54.023Z,73.81
2023-01-19T02:53:32.360Z,72.97
2023-01-19T02:56:04.742Z,72.29
2023-01-19T02:58:47.320Z,73.84
2023-01-19T03:01:27.768Z,74.75
2023-01-19T03:04:12.571Z,75.12
2023-01-19T03:07:08.469Z,74.56
2023-01-19T03:09:47.159Z,74.97
2023-01-19T03:12:28.159Z,75.21
2023-01-19T03:15:01.596Z,75.40
2023-01-19T03:17:31.006Z,75.05
2023-01-19T03:22:27.744Z,74.53
2023-01-19T03:24:58.932Z,75.55
2023-01-19T03:27:29.247Z,75.01
2023-01-19T03:30:08.008Z,76.45
2023-01-19T03:32:42.753Z,76.92
2023-01-19T03:35:14.427Z,76.67
2023-01-19T03:37:44.712Z,76.46
2023-01-19T03:40:11.973Z,77.29
2023-01-19T03:42:40.340Z,76.54
2023-01-19T03:45:09.034Z,75.67
2023-01-19T03:47:36.217Z,75.45
2023-01-19T03:50:07.768Z,77.60
2023-01-19T03:52:34.268Z,78.82
2023-01-19T03:55:01.827Z,76.12
2023-01-19T03:57:28.252Z,75.47
2023-01-19T03:59:54.767Z,75.99
2023-01-19T04:02:21.228Z,75.15
2023-01-19T04:04:47.759Z,74.73
2023-01-19T04:07:14.266Z,74.85
2023-01-19T04:09:41.024Z,74.96
2023-01-19T04:12:07.987Z,76.00
2023-01-19T04:14:34.444Z,75.94
2023-01-19T04:17:00.921Z,75.94
2023-01-19T04:19:27.379Z,74.99
2023-01-19T04:21:55.251Z,74.72
2023-01-19T04:24:22.037Z,74.39
2023-01-19T04:26:51.745Z,74.30
2023-01-19T04:29:18.181Z,75.23
2023-01-19T04:31:44.680Z,75.19
2023-01-19T04:34:11.121Z,75.94
2023-01-19T04:36:37.553Z,76.96
2023-01-19T04:39:04.960Z,77.35
2023-01-19T04:41:31.762Z,74.86
2023-01-19T04:43:58.187Z,73.42
2023-01-19T04:46:24.838Z,72.85
2023-01-19T04:48:51.280Z,73.70
2023-01-19T04:51:17.753Z,74.12
2023-01-19T04:53:44.184Z,74.50
2023-01-19T04:56:10.940Z,74.04
2023-01-19T04:58:37.388Z,72.99
2023-01-19T05:01:07.691Z,72.98
2023-01-19T05:03:34.145Z,71.44
2023-01-19T05:06:00.782Z,71.95
2023-01-19T05:08:27.275Z,71.59
2023-01-19T05:10:53.859Z,71.71
2023-01-19T05:13:20.717Z,72.49
2023-01-19T05:15:47.345Z,72.44
2023-01-19T05:18:13.858Z,73.48
2023-01-19T05:20:41.143Z,74.57
2023-01-19T05:23:07.755Z,74.20
2023-01-19T05:25:34.186Z,75.13
2023-01-19T05:28:00.649Z,75.42
2023-01-19T05:30:27.119Z,76.02
2023-01-19T05:32:53.559Z,76.27
2023-01-19T05:35:31.140Z,76.64
2023-01-19T05:37:57.942Z,76.75
2023-01-19T05:40:24.373Z,77.35
2023-01-19T05:42:50.883Z,77.87
2023-01-19T05:45:17.326Z,77.14
2023-01-19T05:47:43.823Z,76.50
2023-01-19T05:50:10.590Z,74.45
2023-01-19T05:52:36.992Z,74.13
2023-01-19T05:55:03.625Z,73.60
2023-01-19T05:57:30.036Z,74.33
2023-01-19T05:59:56.445Z,74.52
2023-01-19T06:02:28.482Z,74.55
2023-01-19T06:04:55.555Z,75.07
2023-01-19T06:07:24.323Z,75.94
2023-01-19T06:09:50.950Z,76.43
2023-01-19T06:12:17.415Z,76.72
2023-01-19T06:14:43.882Z,76.95
2023-01-19T06:17:10.273Z,76.90
2023-01-19T06:19:36.766Z,76.94
2023-01-19T06:22:03.184Z,76.63
2023-01-19T06:24:29.821Z,76.47
2023-01-19T06:26:56.316Z,76.36
2023-01-19T06:29:23.054Z,76.05
2023-01-19T06:31:49.649Z,75.83
2023-01-19T06:34:16.125Z,75.29
2023-01-19T06:36:42.547Z,75.33
2023-01-19T06:39:09.681Z,74.96
2023-01-19T06:41:36.469Z,75.15
2023-01-19T06:44:03.074Z,75.35
2023-01-19T06:46:29.783Z,75.74
2023-01-19T06:48:56.609Z,76.30
2023-01-19T06:51:23.304Z,77.03
2023-01-19T06:53:50.196Z,76.79
2023-01-19T06:56:16.675Z,76.67
2023-01-19T06:58:43.367Z,76.61
2023-01-19T07:01:10.331Z,75.62
2023-01-19T07:03:37.945Z,74.88
2023-01-19T07:06:06.659Z,74.80
2023-01-19T07:08:37.303Z,74.78
2023-01-19T07:11:23.656Z,75.34
2023-01-19T07:13:55.420Z,74.69
2023-01-19T07:16:21.945Z,74.26
2023-01-19T07:18:49.979Z,73.99
2023-01-19T07:21:17.524Z,73.64
2023-01-19T07:23:43.975Z,74.24
2023-01-19T07:26:10.901Z,74.66
2023-01-19T07:28:37.412Z,75.04
2023-01-19T07:31:04.504Z,75.19
2023-01-19T07:33:31.089Z,74.59
2023-01-19T07:35:57.537Z,74.63
2023-01-19T07:38:24.200Z,74.71
2023-01-19T07:40:50.660Z,74.20
2023-01-19T07:43:17.140Z,73.95
2023-01-19T07:45:44.967Z,73.56
2023-01-19T07:48:11.563Z,73.74
2023-01-19T07:50:37.992Z,73.69
2023-01-19T07:53:08.824Z,74.00
2023-01-19T07:55:35.642Z,74.38
2023-01-19T07:58:05.022Z,74.86
2023-01-19T08:00:31.495Z,74.90
2023-01-19T08:03:01.029Z,74.94
2023-01-19T08:05:29.109Z,74.84
2023-01-19T08:07:57.557Z,74.54
2023-01-19T08:10:26.653Z,75.35
2023-01-19T08:12:57.447Z,74.91
2023-01-19T08:15:24.681Z,74.33
2023-01-19T08:17:56.333Z,73.86
2023-01-19T08:20:23.280Z,73.00
2023-01-19T08:22:49.888Z,73.28
2023-01-19T08:25:16.745Z,73.44
2023-01-19T08:27:43.135Z,73.43
2023-01-19T08:30:10.360Z,73.61
2023-01-19T08:32:36.824Z,73.87
2023-01-19T08:35:03.479Z,74.11
2023-01-19T08:37:30.393Z,74.21
2023-01-19T08:39:56.841Z,73.74
2023-01-19T08:42:23.232Z,73.58
2023-01-19T08:44:57.701Z,74.49
2023-01-19T08:47:24.653Z,74.07
2023-01-19T08:49:51.123Z,73.38
2023-01-19T08:52:17.527Z,73.39
2023-01-19T08:54:43.957Z,73.83
2023-01-19T08:57:10.440Z,74.09
2023-01-19T08:59:38.131Z,74.57
2023-01-19T09:02:04.618Z,74.63
2023-01-19T09:04:32.937Z,73.28
2023-01-19T09:06:59.345Z,72.53
2023-01-19T09:09:25.744Z,72.58
2023-01-19T09:11:54.097Z,72.15
2023-01-19T09:14:20.869Z,71.97
2023-01-19T09:16:47.349Z,72.05
2023-01-19T09:19:14.046Z,71.50
2023-01-19T09:21:40.535Z,71.38
2023-01-19T09:24:07.258Z,71.20
2023-01-19T09:26:33.743Z,71.38
2023-01-19T09:29:00.299Z,71.15
2023-01-19T09:31:26.938Z,70.97
2023-01-19T09:33:53.375Z,69.66
2023-01-19T09:36:19.799Z,69.40
2023-01-19T09:38:46.272Z,69.65
2023-01-19T09:41:20.925Z,69.52
2023-01-19T09:43:54.455Z,69.19
2023-01-19T09:46:34.315Z,69.01
2023-01-19T09:49:11.467Z,68.86
2023-01-19T09:51:40.999Z,69.25
2023-01-19T09:54:23.911Z,69.20
2023-01-19T09:56:52.688Z,69.42
2023-01-19T09:59:25.570Z,69.20
2023-01-19T10:02:19.521Z,69.29
2023-01-19T10:04:58.901Z,69.76
2023-01-19T10:07:36.462Z,69.63
2023-01-19T10:10:24.358Z,70.18
2023-01-19T10:13:14.962Z,70.41
2023-01-19T10:16:02.720Z,69.50
2023-01-19T10:18:43.270Z,68.48
2023-01-19T10:21:15.064Z,68.10
2023-01-19T10:23:47.080Z,67.01
2023-01-19T10:26:21.954Z,67.62
2023-01-19T10:28:52.611Z,66.50
2023-01-19T10:31:23.159Z,66.11
2023-01-19T10:33:54.095Z,66.76
2023-01-19T10:36:29.662Z,64.66
2023-01-19T10:38:56.142Z,63.80
2023-01-19T10:41:52.879Z,61.95
2023-01-19T10:44:28.346Z,61.17
2023-01-19T10:46:58.134Z,60.94
2023-01-19T10:49:31.460Z,61.43
2023-01-19T10:51:59.686Z,60.47
2023-01-19T10:54:28.134Z,60.24
2023-01-19T10:57:01.028Z,59.44
2023-01-19T10:59:35.514Z,58.95
2023-01-19T11:02:15.808Z,59.61
2023-01-19T11:04:42.361Z,61.49
2023-01-19T11:07:34.489Z,61.78
2023-01-19T11:10:16.045Z,61.88
2023-01-19T11:12:45.897Z,62.14
2023-01-19T11:15:20.900Z,62.77
2023-01-19T11:17:51.882Z,62.60
2023-01-19T11:20:25.551Z,62.52
2023-01-19T11:23:24.611Z,63.19
2023-01-19T11:25:59.178Z,63.43
2023-01-19T11:28:37.614Z,64.53
2023-01-19T11:31:10.306Z,63.65
2023-01-19T11:33:41.935Z,63.90
2023-01-19T11:36:19.117Z,63.16
2023-01-19T11:38:48.952Z,63.08
2023-01-19T11:41:21.173Z,63.90
2023-01-19T11:43:52.891Z,64.47
2023-01-19T11:46:20.712Z,63.76
2023-01-19T11:48:57.966Z,64.50
2023-01-19T11:51:30.630Z,64.29
2023-01-19T11:53:57.195Z,64.59
2023-01-19T11:56:29.060Z,63.97
2023-01-19T11:58:56.310Z,63.81
2023-01-19T12:01:27.871Z,63.55
2023-01-19T12:04:00.499Z,64.58
2023-01-19T12:06:36.844Z,64.26
2023-01-19T12:09:13.378Z,63.48
2023-01-19T12:11:55.000Z,63.61
2023-01-19T12:14:28.688Z,64.45
2023-01-19T12:16:59.806Z,64.46
2023-01-19T12:19:46.325Z,64.03
2023-01-19T12:22:18.274Z,65.26
2023-01-19T12:24:53.817Z,65.94
2023-01-19T12:27:41.256Z,66.08
2023-01-19T12:30:28.942Z,65.83
2023-01-19T12:33:34.896Z,66.70
2023-01-19T12:36:11.225Z,66.87
2023-01-19T12:38:42.068Z,67.40
2023-01-19T12:41:18.490Z,67.71
2023-01-19T12:43:45.187Z,66.32
2023-01-19T12:46:30.405Z,66.89
2023-01-19T12:49:06.910Z,67.18
2023-01-19T12:51:33.762Z,67.19
2023-01-19T12:54:01.693Z,67.15
2023-01-19T12:56:31.611Z,67.58
2023-01-19T12:58:58.691Z,67.80
2023-01-19T13:01:26.936Z,67.28
2023-01-19T13:04:26.588Z,66.94
2023-01-19T13:06:54.013Z,67.77
2023-01-19T13:09:46.819Z,68.50
2023-01-19T13:12:20.404Z,68.67
2023-01-19T13:14:47.597Z,68.67
2023-01-19T13:17:22.054Z,68.42
2023-01-19T13:19:54.642Z,69.10
2023-01-19T13:22:58.652Z,68.43
2023-01-19T13:25:31.855Z,68.82
2023-01-19T13:27:58.643Z,68.69
2023-01-19T13:30:28.257Z,69.47
2023-01-19T13:32:59.117Z,68.99
2023-01-19T13:35:25.633Z,68.96
2023-01-19T13:37:52.613Z,68.94
2023-01-19T13:40:25.275Z,69.02
2023-01-19T13:42:54.061Z,68.91
2023-01-19T13:45:31.133Z,68.95
2023-01-19T13:48:00.514Z,68.82
2023-01-19T13:50:30.209Z,68.95
2023-01-19T13:52:58.827Z,68.84
2023-01-19T13:55:30.839Z,68.67
2023-01-19T13:57:57.832Z,68.79
2023-01-19T14:00:27.254Z,69.60
2023-01-19T14:02:58.982Z,68.97
2023-01-19T14:05:32.764Z,68.86
2023-01-19T14:08:07.946Z,69.47
2023-01-19T14:10:36.507Z,69.53
2023-01-19T14:13:05.876Z,69.78
2023-01-19T14:15:34.429Z,69.41
2023-01-19T14:18:16.035Z,69.57
2023-01-19T14:20:58.053Z,69.63
2023-01-19T14:23:50.767Z,69.30
2023-01-19T14:26:42.994Z,69.13
2023-01-19T14:29:36.379Z,67.85
2023-01-19T14:32:17.823Z,68.84
2023-01-19T14:34:47.584Z,68.43
2023-01-19T14:37:26.928Z,68.02
2023-01-19T14:39:58.102Z,68.10
2023-01-19T14:42:28.690Z,68.55
2023-01-19T14:44:57.033Z,68.85
2023-01-19T14:47:30.972Z,68.99
2023-01-19T14:50:17.227Z,69.01
2023-01-19T14:52:51.326Z,69.15
2023-01-19T14:55:25.469Z,69.05
2023-01-19T14:57:51.905Z,68.62
2023-01-19T15:00:20.421Z,69.00
2023-01-19T15:02:47.519Z,68.68
2023-01-19T15:05:14.814Z,68.56
2023-01-19T15:07:44.035Z,68.42
2023-01-19T15:10:16.341Z,68.37
2023-01-19T15:12:43.383Z,68.70
2023-01-19T15:15:18.517Z,69.09
2023-01-19T15:17:45.043Z,68.65
2023-01-19T15:20:17.133Z,69.04
2023-01-19T15:22:44.586Z,68.60
2023-01-19T15:25:20.932Z,68.86
2023-01-19T15:27:48.588Z,68.89
2023-01-19T15:30:20.180Z,68.89
2023-01-19T15:32:47.021Z,68.85
2023-01-19T15:35:15.955Z,69.11
2023-01-19T15:37:42.489Z,69.12
2023-01-19T15:40:09.632Z,68.46
2023-01-19T15:42:36.056Z,68.58
2023-01-19T15:45:02.900Z,68.80
2023-01-19T15:47:29.351Z,69.12
2023-01-19T15:49:55.817Z,68.69
2023-01-19T15:52:22.219Z,69.07
2023-01-19T15:54:48.655Z,69.14
2023-01-19T15:57:15.079Z,69.01
2023-01-19T15:59:41.501Z,68.56
2023-01-19T16:02:09.602Z,68.75
2023-01-19T16:04:36.186Z,68.73
2023-01-19T16:07:02.636Z,69.26
2023-01-19T16:09:29.052Z,69.52
2023-01-19T16:11:57.069Z,69.41
2023-01-19T16:14:23.624Z,69.89
2023-01-19T16:16:50.097Z,70.02
2023-01-19T16:19:16.647Z,69.83
2023-01-19T16:21:43.936Z,70.05
2023-01-19T16:24:10.452Z,69.98
2023-01-19T16:26:36.973Z,69.44
2023-01-19T16:29:09.635Z,70.34
2023-01-19T16:31:41.218Z,69.94
2023-01-19T16:34:08.749Z,70.12
2023-01-19T16:36:38.238Z,70.45
2023-01-19T16:39:07.701Z,70.65
2023-01-19T16:41:34.625Z,70.84
2023-01-19T16:44:01.771Z,71.26
2023-01-19T16:46:32.404Z,71.56
2023-01-19T16:49:01.353Z,71.44
2023-01-19T16:51:28.297Z,71.38
2023-01-19T16:53:54.946Z,71.31
2023-01-19T16:56:21.515Z,71.54
2023-01-19T16:58:47.982Z,71.54
2023-01-19T17:01:20.272Z,71.65
2023-01-19T17:03:47.646Z,71.75
2023-01-19T17:06:17.988Z,71.12
2023-01-19T17:08:44.639Z,71.18
2023-01-19T17:11:22.130Z,71.63
2023-01-19T17:13:55.642Z,71.34
2023-01-19T17:16:23.705Z,71.55
2023-01-19T17:18:50.917Z,71.38
2023-01-19T17:21:18.055Z,71.74
2023-01-19T17:23:48.984Z,71.98
2023-01-19T17:26:16.208Z,72.31
2023-01-19T17:28:43.388Z,72.06
2023-01-19T17:31:12.996Z,72.27
2023-01-19T17:33:40.047Z,72.50
2023-01-19T17:36:15.079Z,72.16
2023-01-19T17:38:41.803Z,72.05
2023-01-19T17:41:27.479Z,71.96
2023-01-19T17:43:54.187Z,72.13
2023-01-19T17:46:23.787Z,72.41
2023-01-19T17:48:55.238Z,72.49
2023-01-19T17:51:25.081Z,72.83
2023-01-19T17:53:52.817Z,72.90
2023-01-19T17:56:22.111Z,72.93
2023-01-19T17:58:49.403Z,72.88
2023-01-19T18:01:22.984Z,73.04
2023-01-19T18:03:49.679Z,72.68
2023-01-19T18:06:16.948Z,72.97
2023-01-19T18:08:46.122Z,73.13
2023-01-19T18:11:14.246Z,73.33
2023-01-19T18:13:43.393Z,73.09
2023-01-19T18:16:15.514Z,73.47
2023-01-19T18:18:44.055Z,73.04
2023-01-19T18:21:13.209Z,73.01
2023-01-19T18:23:43.264Z,73.47
2023-01-19T18:26:12.163Z,73.57
2023-01-19T18:28:38.639Z,73.74
2023-01-19T18:31:10.148Z,73.69
2023-01-19T18:33:37.563Z,73.70
2023-01-19T18:36:04.713Z,73.64
2023-01-19T18:38:31.508Z,73.21
2023-01-19T18:41:02.646Z,73.89
2023-01-19T18:43:29.408Z,74.14
2023-01-19T18:45:56.142Z,74.40
2023-01-19T18:48:22.874Z,74.70
2023-01-19T18:50:49.769Z,74.69
2023-01-19T18:53:16.481Z,74.45
2023-01-19T18:55:54.088Z,74.69
2023-01-19T18:58:20.669Z,74.75
2023-01-19T19:00:47.870Z,74.58
2023-01-19T19:03:14.341Z,74.49
2023-01-19T19:05:40.833Z,74.40
2023-01-19T19:08:07.653Z,73.80
2023-01-19T19:10:34.260Z,74.09
2023-01-19T19:13:00.779Z,74.57
2023-01-19T19:15:27.302Z,73.98
2023-01-19T19:17:54.338Z,74.25
2023-01-19T19:20:22.698Z,74.30
2023-01-19T19:22:49.199Z,74.55
2023-01-19T19:25:15.824Z,74.67
2023-01-19T19:27:45.271Z,74.92
2023-01-19T19:30:13.467Z,75.10
2023-01-19T19:32:40.153Z,75.13
2023-01-19T19:35:07.141Z,74.97
2023-01-19T19:37:33.729Z,75.31
2023-01-19T19:40:00.262Z,75.08
2023-01-19T19:42:29.915Z,75.10
2023-01-19T19:44:56.510Z,74.64
2023-01-19T19:47:24.455Z,74.72
2023-01-19T19:49:50.985Z,74.64
2023-01-19T19:52:17.436Z,74.76
2023-01-19T19:54:45.132Z,74.91
2023-01-19T19:57:11.639Z,74.55
2023-01-19T19:59:38.135Z,74.83
2023-01-19T20:02:04.849Z,74.56
2023-01-19T20:04:31.348Z,75.00
2023-01-19T20:06:59.133Z,74.88
2023-01-19T20:09:25.883Z,75.00
2023-01-19T20:11:52.892Z,75.06
2023-01-19T20:14:20.159Z,74.92
2023-01-19T20:16:46.591Z,74.81
2023-01-19T20:19:13.026Z,74.88
2023-01-19T20:21:43.865Z,75.19
2023-01-19T20:24:16.204Z,75.23
2023-01-19T20:26:45.897Z,75.11
2023-01-19T20:29:12.450Z,75.12
2023-01-19T20:31:51.077Z,75.25
2023-01-19T20:34:20.555Z,75.20
2023-01-19T20:36:49.658Z,74.98
2023-01-19T20:39:19.292Z,75.39
2023-01-19T20:41:45.963Z,75.38
2023-01-19T20:44:15.029Z,75.45
2023-01-19T20:46:42.162Z,75.31
2023-01-19T20:49:08.606Z,75.26
2023-01-19T20:51:35.891Z,75.36
2023-01-19T20:54:02.334Z,75.49
2023-01-19T20:56:28.819Z,75.80
2023-01-19T20:58:55.220Z,75.59
2023-01-19T21:01:24.231Z,75.32
2023-01-19T21:03:52.193Z,75.50
2023-01-19T21:06:20.502Z,75.14
2023-01-19T21:08:49.743Z,75.26
2023-01-19T21:11:19.641Z,75.52
2023-01-19T21:13:47.040Z,75.80
2023-01-19T21:16:14.901Z,75.71
2023-01-19T21:18:41.696Z,75.62
2023-01-19T21:21:14.902Z,75.42
2023-01-19T21:23:47.514Z,75.47
2023-01-19T21:26:14.889Z,75.41
2023-01-19T21:28:41.527Z,75.60
2023-01-19T21:31:10.586Z,75.67
2023-01-19T21:33:37.108Z,75.33
2023-01-19T21:36:03.938Z,76.25
2023-01-19T21:38:30.452Z,75.69
2023-01-19T21:40:58.028Z,75.39
2023-01-19T21:43:26.413Z,75.76
2023-01-19T21:45:53.016Z,75.32
2023-01-19T21:48:19.855Z,75.50
2023-01-19T21:50:46.386Z,75.79
2023-01-19T21:53:12.877Z,75.33
2023-01-19T21:55:43.985Z,75.17
2023-01-19T21:58:10.387Z,75.10
2023-01-19T22:00:36.838Z,75.40
2023-01-19T22:03:04.748Z,75.35
2023-01-19T22:05:36.794Z,75.22
2023-01-19T22:08:04.840Z,75.15
2023-01-19T22:10:31.275Z,75.31
2023-01-19T22:12:57.710Z,75.20
2023-01-19T22:15:24.134Z,75.18
2023-01-19T22:17:50.537Z,75.32
2023-01-19T22:20:17.180Z,75.23
2023-01-19T22:22:43.584Z,75.38
2023-01-19T22:25:10.211Z,75.39
2023-01-19T22:27:37.425Z,75.47
2023-01-19T22:30:04.201Z,75.61
2023-01-19T22:32:31.225Z,76.23
2023-01-19T22:34:57.681Z,75.94
2023-01-19T22:37:24.453Z,75.90
2023-01-19T22:39:50.895Z,76.40
2023-01-19T22:42:17.351Z,76.36
2023-01-19T22:44:44.178Z,76.74
2023-01-19T22:47:10.606Z,76.71
2023-01-19T22:49:37.133Z,76.56
2023-01-19T22:52:03.596Z,76.54
2023-01-19T22:54:30.196Z,76.68
2023-01-19T22:56:56.686Z,77.22
2023-01-19T22:59:23.103Z,76.82
2023-01-19T23:01:49.921Z,76.63
2023-01-19T23:04:16.508Z,77.16
2023-01-19T23:06:46.724Z,76.15
2023-01-19T23:09:14.008Z,76.21
2023-01-19T23:11:43.433Z,76.07
2023-01-19T23:14:14.724Z,75.56
2023-01-19T23:16:41.674Z,75.48
2023-01-19T23:19:10.947Z,75.90
2023-01-19T23:21:37.424Z,75.66
2023-01-19T23:24:04.987Z,75.79
2023-01-19T23:26:37.838Z,75.54
2023-01-19T23:29:07.358Z,75.72
2023-01-19T23:31:36.232Z,75.33
2023-01-19T23:34:05.964Z,75.48
2023-01-19T23:36:34.481Z,75.45
2023-01-19T23:39:09.773Z,75.04
2023-01-19T23:41:36.210Z,75.17
2023-01-19T23:44:03.473Z,75.16
2023-01-19T23:46:30.208Z,75.07
2023-01-19T23:48:57.286Z,75.16
2023-01-19T23:51:29.411Z,75.41
2023-01-19T23:53:56.969Z,75.67
2023-01-19T23:56:26.601Z,75.50
2023-01-19T23:59:02.642Z,75.28
